TimeMST,TemperatureF,Dew PointF,Humidity,Sea Level PressureIn,VisibilityMPH,Wind Direction,Wind SpeedMPH,Gust SpeedMPH,PrecipitationIn,Events,Conditions,WindDirDegrees,DateUTC
12:53 AM,19.0,10.9,71,30.48,10.0,SSW,5.8,-,N/A,,Overcast,210,2013-01-15 07:53:00
2:53 AM,15.1,9.0,77,30.54,4.0,Calm,Calm,-,N/A,,Haze,0,2013-01-15 09:53:00
3:53 AM,15.1,9.0,77,30.55,4.0,West,4.6,-,N/A,,Haze,280,2013-01-15 10:53:00
4:53 AM,14.0,9.0,80,30.57,3.0,WNW,4.6,-,N/A,,Haze,290,2013-01-15 11:53:00
5:44 AM,14.0,8.6,79,30.43,4.0,West,5.8,-,N/A,,Haze,280,2013-01-15 12:44:00
5:53 AM,15.1,9.0,77,30.56,4.0,West,5.8,-,N/A,,Haze,280,2013-01-15 12:53:00
6:01 AM,14.0,8.6,79,30.43,4.0,West,5.8,-,N/A,,Haze,270,2013-01-15 13:01:00
6:53 AM,14.0,9.0,80,30.60,3.0,North,4.6,-,N/A,,Haze,10,2013-01-15 13:53:00
7:53 AM,12.9,8.1,81,30.60,4.0,NE,3.5,-,0.00,,Haze,50,2013-01-15 14:53:00
8:20 AM,12.2,8.6,85,30.49,2.5,ENE,3.5,-,N/A,,Haze,60,2013-01-15 15:20:00
8:32 AM,12.2,8.6,85,30.49,3.0,Calm,Calm,-,N/A,,Haze,0,2013-01-15 15:32:00
8:53 AM,14.0,8.1,77,30.63,3.0,ENE,3.5,-,N/A,,Haze,70,2013-01-15 15:53:00
9:01 AM,14.0,8.6,79,30.51,2.0,ENE,3.5,-,N/A,,Haze,70,2013-01-15 16:01:00
9:29 AM,14.0,8.6,79,30.51,2.0,ESE,3.5,-,N/A,,Haze,110,2013-01-15 16:29:00
9:53 AM,15.1,9.0,77,30.62,3.0,Variable,3.5,-,N/A,,Haze,0,2013-01-15 16:53:00
10:10 AM,15.8,8.6,73,30.51,3.0,Calm,Calm,-,N/A,,Haze,0,2013-01-15 17:10:00
10:35 AM,15.8,10.4,79,30.53,4.0,Calm,Calm,-,N/A,,Haze,0,2013-01-15 17:35:00
10:46 AM,17.6,10.4,73,30.52,4.0,Calm,Calm,-,N/A,,Haze,0,2013-01-15 17:46:00
10:53 AM,17.1,10.0,74,30.64,4.0,Calm,Calm,-,N/A,,Haze,0,2013-01-15 17:53:00
11:53 AM,17.1,10.0,74,30.63,4.0,NNW,3.5,-,N/A,,Haze,340,2013-01-15 18:53:00
12:22 PM,17.6,10.4,73,30.52,3.0,North,4.6,-,N/A,,Haze,350,2013-01-15 19:22:00
12:51 PM,17.6,10.4,73,30.52,3.0,NNE,4.6,-,N/A,,Haze,30,2013-01-15 19:51:00
12:53 PM,17.1,10.0,74,30.64,3.0,NE,4.6,-,N/A,,Haze,40,2013-01-15 19:53:00
1:24 PM,17.6,10.4,73,30.51,5.0,Calm,Calm,-,N/A,,Haze,0,2013-01-15 20:24:00
1:53 PM,18.0,10.0,71,30.64,5.0,NE,4.6,-,N/A,,Haze,50,2013-01-15 20:53:00
2:15 PM,17.6,10.4,73,30.51,4.0,Calm,Calm,-,N/A,,Haze,0,2013-01-15 21:15:00
2:27 PM,17.6,10.4,73,30.51,4.0,Calm,Calm,-,N/A,,Haze,0,2013-01-15 21:27:00
2:53 PM,18.0,10.9,74,30.64,4.0,Calm,Calm,-,N/A,,Haze,0,2013-01-15 21:53:00
3:53 PM,18.0,10.0,71,30.66,6.0,NW,4.6,-,N/A,,Haze,320,2013-01-15 22:53:00
4:53 PM,18.0,10.0,71,30.70,6.0,North,3.5,-,N/A,,Haze,360,2013-01-15 23:53:00
5:13 PM,17.6,10.4,73,30.57,6.0,Calm,Calm,-,N/A,,Haze,0,2013-01-16 00:13:00
5:35 PM,17.6,10.4,73,30.56,5.0,Calm,Calm,-,N/A,,Haze,0,2013-01-16 00:35:00
5:53 PM,17.1,10.0,74,30.70,5.0,Calm,Calm,-,N/A,,Haze,0,2013-01-16 00:53:00
6:00 PM,17.6,10.4,73,30.57,6.0,Calm,Calm,-,N/A,,Haze,0,2013-01-16 01:00:00
6:53 PM,17.1,10.0,74,30.71,6.0,NW,4.6,-,N/A,,Haze,310,2013-01-16 01:53:00
7:53 PM,17.1,10.9,77,30.72,6.0,Calm,Calm,-,N/A,,Haze,0,2013-01-16 02:53:00
8:53 PM,17.1,10.0,74,30.71,6.0,Calm,Calm,-,N/A,,Haze,0,2013-01-16 03:53:00
9:53 PM,12.9,8.1,81,30.73,5.0,Calm,Calm,-,N/A,,Haze,0,2013-01-16 04:53:00
10:23 PM,6.8,1.4,79,30.59,5.0,ENE,3.5,-,N/A,,Haze,70,2013-01-16 05:23:00
11:53 PM,7.0,1.0,77,30.75,5.0,ESE,5.8,-,N/A,,Haze,120,2013-01-16 06:53:00